• Join FlightAware (Why Join?)
  • Login
  • US Flag 
12:17AM EDT


 

Airport Tracker/Info


-or-


 

Live Flight TrackerFlight Track Log ✈ N682RW ✈ 05-Jul-2013 ✈ KBKL - KDTW

Flight Track Log - Related Links

Times and Time Zones

All times are in EDT time to prevent confusion due to time zone crossing. See the N682RW flight status page for this flight to view local times or setup timezone preferences in your user account.

Time Position Orientation Groundspeed Altitude Reporting Facility
EDT Latitude Longitude Course Direction KTS MPH feet Rate Location/Type
02:17AM 41.5106 -81.7006 297° West 179 206 1,300  Level Cleveland Center
02:18AM 41.5408 -81.7817 297° West 284 327 5,800 3,900 Climbing Cleveland Center
02:19AM 41.6156 -81.8247 337° Northwest 318 366 9,700 3,120 Climbing Cleveland Center
02:20AM 41.6186 -81.9247 272° West 307 353 12,100 1,140 Climbing Cleveland Center
02:21AM 41.6131 -82.0411 266° West 331 381 12,000 -60 Descending Cleveland Center
02:22AM 41.6397 -82.2169 282° West 338 389 12,000  Level Cleveland Center
02:23AM 41.6589 -82.3369 282° West 333 383 12,000  Level Cleveland Center
02:24AM 41.6703 -82.4150 281° West 330 380 12,000  Level Cleveland Center
02:25AM 41.6889 -82.5350 282° West 325 374 12,000  Level Cleveland Center
02:26AM 41.7075 -82.6636 281° West 325 374 12,000  Level Cleveland Center
02:27AM 41.7303 -82.7811 285° West 334 384 12,000  Level Cleveland Center
02:28AM 41.7994 -82.8728 315° West 356 410 12,000  Level Cleveland Center
02:29AM 41.8728 -82.9592 319° Northwest 348 400 12,000 -180 Level Cleveland Center
02:30AM 41.9547 -83.0236 330° Northwest 355 409 11,700 -900 Descending Cleveland Center
02:31AM 42.0439 -83.0494 348° North 320 368 10,300 -2,100 Descending Cleveland Center
02:32AM 42.1267 -83.0750 347° North 293 337 7,500 -2,820 Descending Cleveland Center
02:33AM 42.2011 -83.1031 344° North 273 314 4,700 -1,740 Descending Cleveland Center
02:34AM 42.2694 -83.1311 343° North 235 270 4,000 -480 Descending Cleveland Center
02:35AM 42.3272 -83.1531 344° North 217 250 3,800 -480 Descending Cleveland Center
02:36AM 42.3489 -83.2072 298° West 188 216 3,100 -480 Descending Cleveland Center
02:37AM 42.3228 -83.2622 237° Southwest 168 193 2,900 -480 Descending Cleveland Center
02:38AM 42.2844 -83.2861 205° Southwest 133 153 2,200 -720 Descending Cleveland Center
02:39AM 42.2550 -83.3072 208° Southwest 123 142 1,500 -660 Descending Cleveland Center
02:40AM 42.2253 -83.3311 211° Southwest 124 143 900 -600 Descending Cleveland Center